createdAt,value
2018-02-17T00:00:03.000Z,21.1
2018-02-17T00:10:03.000Z,21.1
2018-02-17T00:20:03.000Z,21.1
2018-02-17T00:30:03.000Z,20.9
2018-02-17T00:40:03.000Z,20.9
2018-02-17T00:50:03.000Z,20.8
2018-02-17T01:00:06.000Z,20.7
2018-02-17T01:10:03.000Z,20.6
2018-02-17T01:20:03.000Z,20.3
2018-02-17T01:30:03.000Z,20.3
2018-02-17T01:40:03.000Z,20.3
2018-02-17T01:50:03.000Z,20.3
2018-02-17T02:00:03.000Z,20.3
2018-02-17T02:10:03.000Z,20.3
2018-02-17T02:20:03.000Z,20.3
2018-02-17T02:30:03.000Z,20.3
2018-02-17T02:40:03.000Z,20.3
2018-02-17T02:50:03.000Z,20.3
2018-02-17T03:00:03.000Z,20.3
2018-02-17T03:10:03.000Z,20.3
2018-02-17T03:20:03.000Z,20.3
2018-02-17T03:30:03.000Z,20.2
2018-02-17T03:40:06.000Z,20.2
2018-02-17T03:50:03.000Z,20.1
2018-02-17T04:00:03.000Z,20
2018-02-17T04:10:03.000Z,20
2018-02-17T04:20:03.000Z,20
2018-02-17T04:30:03.000Z,19.9
2018-02-17T04:40:03.000Z,19.9
2018-02-17T04:50:03.000Z,19.9
2018-02-17T05:00:03.000Z,19.9
2018-02-17T05:10:03.000Z,19.9
2018-02-17T05:20:03.000Z,19.8
2018-02-17T05:30:03.000Z,19.9
2018-02-17T05:40:03.000Z,19.9
2018-02-17T05:50:03.000Z,19.9
2018-02-17T06:00:03.000Z,19.9
2018-02-17T06:10:03.000Z,19.9
2018-02-17T06:20:06.000Z,19.9
2018-02-17T06:30:03.000Z,19.9
2018-02-17T06:40:03.000Z,19.9
2018-02-17T06:50:03.000Z,19.9
2018-02-17T07:00:03.000Z,20
2018-02-17T07:10:03.000Z,20
2018-02-17T07:20:03.000Z,20
2018-02-17T07:30:03.000Z,20
2018-02-17T07:40:03.000Z,20
2018-02-17T07:50:03.000Z,20
2018-02-17T08:00:03.000Z,20
2018-02-17T08:10:03.000Z,20.1
2018-02-17T08:20:03.000Z,20.2
2018-02-17T08:30:03.000Z,20.2
2018-02-17T08:40:03.000Z,20.2
2018-02-17T08:50:03.000Z,20.2
2018-02-17T09:00:06.000Z,20.3
2018-02-17T09:10:03.000Z,20.3
2018-02-17T09:20:03.000Z,20.3
2018-02-17T09:30:03.000Z,20.3
2018-02-17T09:40:03.000Z,20.3
2018-02-17T09:50:03.000Z,20.3
2018-02-17T10:00:03.000Z,20.3
2018-02-17T10:10:03.000Z,20.6
2018-02-17T10:20:03.000Z,20.7
2018-02-17T10:30:03.000Z,20.8
2018-02-17T10:40:03.000Z,20.9
2018-02-17T10:50:03.000Z,21
2018-02-17T11:00:03.000Z,21.1
2018-02-17T11:10:03.000Z,21.1
2018-02-17T11:20:03.000Z,21.2
2018-02-17T11:30:03.000Z,21.3
2018-02-17T11:40:06.000Z,21.4
2018-02-17T11:50:03.000Z,21.5
2018-02-17T12:00:03.000Z,21.5
2018-02-17T12:10:03.000Z,21.6
2018-02-17T12:20:03.000Z,21.6
2018-02-17T12:30:03.000Z,21.6
2018-02-17T12:40:03.000Z,21.6
2018-02-17T12:50:03.000Z,21.6
2018-02-17T13:00:03.000Z,21.6
2018-02-17T13:10:03.000Z,21.6
2018-02-17T13:20:03.000Z,21.6
2018-02-17T13:30:03.000Z,21.7
2018-02-17T13:40:03.000Z,21.6
2018-02-17T13:50:03.000Z,21.7
2018-02-17T14:00:03.000Z,21.7
2018-02-17T14:10:03.000Z,21.6
2018-02-17T14:20:06.000Z,21.7
2018-02-17T14:30:03.000Z,21.7
2018-02-17T14:40:03.000Z,21.8
2018-02-17T14:50:03.000Z,21.8
2018-02-17T15:00:03.000Z,21.8
2018-02-17T15:10:03.000Z,21.8
2018-02-17T15:20:03.000Z,21.8
2018-02-17T15:30:03.000Z,21.8
2018-02-17T15:40:03.000Z,21.8
2018-02-17T15:50:03.000Z,21.8
2018-02-17T16:00:03.000Z,21.8
2018-02-17T16:10:03.000Z,21.7
2018-02-17T16:20:03.000Z,21.7
2018-02-17T16:30:03.000Z,21.6
2018-02-17T16:40:03.000Z,21.6
2018-02-17T16:50:03.000Z,21.6
2018-02-17T17:00:06.000Z,21.6
2018-02-17T17:10:03.000Z,21.6
2018-02-17T17:20:03.000Z,21.6
2018-02-17T17:30:03.000Z,21.6
2018-02-17T17:40:03.000Z,21.6
2018-02-17T17:50:03.000Z,21.6
2018-02-17T18:00:03.000Z,21.6
2018-02-17T18:10:03.000Z,21.6
2018-02-17T18:20:03.000Z,21.6
2018-02-17T18:30:03.000Z,21.6
2018-02-17T18:40:03.000Z,21.6
2018-02-17T18:50:03.000Z,21.6
2018-02-17T19:00:03.000Z,21.6
2018-02-17T19:10:03.000Z,21.6
2018-02-17T19:20:03.000Z,21.6
2018-02-17T19:30:03.000Z,21.6
2018-02-17T19:40:06.000Z,21.6
2018-02-17T19:50:03.000Z,21.6
2018-02-17T20:00:03.000Z,21.6
2018-02-17T20:10:03.000Z,21.6
2018-02-17T20:20:03.000Z,21.6
2018-02-17T20:30:03.000Z,21.6
2018-02-17T20:40:03.000Z,21.6
2018-02-17T20:50:03.000Z,21.6
2018-02-17T21:00:03.000Z,21.5
2018-02-17T21:10:03.000Z,21.5
2018-02-17T21:20:03.000Z,21.5
2018-02-17T21:30:03.000Z,21.5
2018-02-17T21:40:03.000Z,21.5
2018-02-17T21:50:03.000Z,21.4
2018-02-17T22:00:03.000Z,21.4
2018-02-17T22:10:03.000Z,21.4
2018-02-17T22:20:06.000Z,21.3
2018-02-17T22:30:03.000Z,21.3
2018-02-17T22:40:03.000Z,21.3
2018-02-17T22:50:03.000Z,21.3
2018-02-17T23:00:03.000Z,21.3
2018-02-17T23:10:03.000Z,21.2
2018-02-17T23:20:03.000Z,21.2
2018-02-17T23:30:03.000Z,21.2
2018-02-17T23:40:03.000Z,21.1
2018-02-17T23:50:03.000Z,21.1
